Monocacy Station, Pennsylvania
Current Conditions -  °F | °C
As of 8:54 AM on Thursday 18 Dec 2014 (Local Time) from KPTW Reporting Station
Overcast Overcast  
Wind Chill: 27°   Ceiling: 3700
Heat Index: 34°   Visibility: 10mi
Dew Point: 22°   Wind: 9mph
Humidity: 61%   Direction: 290°WNW
Pressure: 30.08"   Gusts: NA
Location:  40.26°N, 75.76°W
Report Text: KPTW 181354Z AUTO 29008KT 10SM OVC037 01/M06 A3008 RMK AO2 SLP184 T00111056
Loading
Personal Weather Stations






























Interactive Weather Map New forecast layout! Learn more

10-Day Weather Forecast

Advertisements
Track Severe Weather on mobile